sensor_id;sensor_type;location;lat;lon;timestamp;temperature;humidity
68844;DHT22;55850;51.244;6.824;2022-08-19T00:03:14;21.82;67.32
68844;DHT22;55850;51.244;6.824;2022-08-19T00:08:19;21.75;67.58
68844;DHT22;55850;51.244;6.824;2022-08-19T00:13:27;21.72;67.63
68844;DHT22;55850;51.244;6.824;2022-08-19T00:18:34;21.63;67.84
68844;DHT22;55850;51.244;6.824;2022-08-19T00:23:40;21.49;68.39
68844;DHT22;55850;51.244;6.824;2022-08-19T00:28:49;21.89;67.27
68844;DHT22;55850;51.244;6.824;2022-08-19T00:33:54;21.46;68.55
68844;DHT22;55850;51.244;6.824;2022-08-19T00:39:00;21.53;68.36
68844;DHT22;55850;51.244;6.824;2022-08-19T00:44:14;21.51;68.47
68844;DHT22;55850;51.244;6.824;2022-08-19T00:49:31;21.43;68.77
68844;DHT22;55850;51.244;6.824;2022-08-19T00:54:40;21.34;68.97
68844;DHT22;55850;51.244;6.824;2022-08-19T00:59:52;21.38;68.79
68844;DHT22;55850;51.244;6.824;2022-08-19T01:05:08;21.20;69.36
68844;DHT22;55850;51.244;6.824;2022-08-19T01:10:18;21.20;69.26
68844;DHT22;55850;51.244;6.824;2022-08-19T01:15:33;21.28;69.00
68844;DHT22;55850;51.244;6.824;2022-08-19T01:20:40;21.24;69.21
68844;DHT22;55850;51.244;6.824;2022-08-19T01:25:50;21.15;69.39
68844;DHT22;55850;51.244;6.824;2022-08-19T01:31:00;21.18;69.47
68844;DHT22;55850;51.244;6.824;2022-08-19T01:36:11;21.15;69.31
68844;DHT22;55850;51.244;6.824;2022-08-19T01:41:20;21.01;69.79
68844;DHT22;55850;51.244;6.824;2022-08-19T01:46:26;20.98;69.81
68844;DHT22;55850;51.244;6.824;2022-08-19T01:51:31;21.04;69.79
68844;DHT22;55850;51.244;6.824;2022-08-19T01:56:44;21.08;69.73
68844;DHT22;55850;51.244;6.824;2022-08-19T02:01:52;21.18;69.20
68844;DHT22;55850;51.244;6.824;2022-08-19T02:06:58;21.14;69.40
68844;DHT22;55850;51.244;6.824;2022-08-19T02:12:07;20.88;70.03
68844;DHT22;55850;51.244;6.824;2022-08-19T02:17:13;20.90;70.07
68844;DHT22;55850;51.244;6.824;2022-08-19T02:22:18;20.95;69.93
68844;DHT22;55850;51.244;6.824;2022-08-19T02:27:27;20.95;70.08
68844;DHT22;55850;51.244;6.824;2022-08-19T02:32:33;21.00;69.88
68844;DHT22;55850;51.244;6.824;2022-08-19T02:37:46;21.01;69.78
68844;DHT22;55850;51.244;6.824;2022-08-19T02:43:08;20.79;70.52
68844;DHT22;55850;51.244;6.824;2022-08-19T02:48:14;20.88;70.05
68844;DHT22;55850;51.244;6.824;2022-08-19T02:53:24;20.88;70.04
68844;DHT22;55850;51.244;6.824;2022-08-19T02:58:34;20.84;70.00
68844;DHT22;55850;51.244;6.824;2022-08-19T03:03:39;20.60;70.75
68844;DHT22;55850;51.244;6.824;2022-08-19T03:08:46;20.49;71.29
68844;DHT22;55850;51.244;6.824;2022-08-19T03:13:55;20.70;70.60
68844;DHT22;55850;51.244;6.824;2022-08-19T03:19:01;20.83;70.35
68844;DHT22;55850;51.244;6.824;2022-08-19T03:24:08;20.43;71.31
68844;DHT22;55850;51.244;6.824;2022-08-19T03:29:17;20.28;71.72
68844;DHT22;55850;51.244;6.824;2022-08-19T03:34:34;20.62;70.67
68844;DHT22;55850;51.244;6.824;2022-08-19T03:39:40;20.43;71.39
68844;DHT22;55850;51.244;6.824;2022-08-19T03:44:49;20.57;70.94
68844;DHT22;55850;51.244;6.824;2022-08-19T03:49:55;20.74;70.25
68844;DHT22;55850;51.244;6.824;2022-08-19T03:55:01;20.57;70.99
68844;DHT22;55850;51.244;6.824;2022-08-19T04:00:11;20.59;70.99
68844;DHT22;55850;51.244;6.824;2022-08-19T04:05:17;20.67;70.70
68844;DHT22;55850;51.244;6.824;2022-08-19T04:10:28;20.90;70.14
68844;DHT22;55850;51.244;6.824;2022-08-19T04:15:41;20.77;70.36
68844;DHT22;55850;51.244;6.824;2022-08-19T04:20:48;20.40;71.24
68844;DHT22;55850;51.244;6.824;2022-08-19T04:25:54;20.50;71.01
68844;DHT22;55850;51.244;6.824;2022-08-19T04:31:03;20.74;70.27
68844;DHT22;55850;51.244;6.824;2022-08-19T04:36:15;20.39;71.34
68844;DHT22;55850;51.244;6.824;2022-08-19T04:41:23;20.33;71.17
68844;DHT22;55850;51.244;6.824;2022-08-19T04:46:45;20.36;70.80
68844;DHT22;55850;51.244;6.824;2022-08-19T04:51:54;20.16;71.25
68844;DHT22;55850;51.244;6.824;2022-08-19T04:56:59;20.06;71.83
68844;DHT22;55850;51.244;6.824;2022-08-19T05:02:10;20.14;71.90
68844;DHT22;55850;51.244;6.824;2022-08-19T05:07:15;20.39;70.93
68844;DHT22;55850;51.244;6.824;2022-08-19T05:12:21;20.56;70.62
68844;DHT22;55850;51.244;6.824;2022-08-19T05:17:33;20.63;70.40
68844;DHT22;55850;51.244;6.824;2022-08-19T05:22:40;20.95;68.96
68844;DHT22;55850;51.244;6.824;2022-08-19T05:27:47;20.57;70.21
68844;DHT22;55850;51.244;6.824;2022-08-19T05:32:55;20.43;70.69
68844;DHT22;55850;51.244;6.824;2022-08-19T05:38:01;20.52;70.40
68844;DHT22;55850;51.244;6.824;2022-08-19T05:43:07;21.24;68.57
68844;DHT22;55850;51.244;6.824;2022-08-19T05:48:16;21.35;67.88
68844;DHT22;55850;51.244;6.824;2022-08-19T05:53:22;21.49;67.55
68844;DHT22;55850;51.244;6.824;2022-08-19T05:58:28;22.67;64.56
68844;DHT22;55850;51.244;6.824;2022-08-19T06:03:37;22.94;63.91
68844;DHT22;55850;51.244;6.824;2022-08-19T06:08:43;23.12;63.86
68844;DHT22;55850;51.244;6.824;2022-08-19T06:13:53;23.81;63.38
68844;DHT22;55850;51.244;6.824;2022-08-19T06:19:05;24.02;63.70
68844;DHT22;55850;51.244;6.824;2022-08-19T06:24:13;24.29;62.78
68844;DHT22;55850;51.244;6.824;2022-08-19T06:29:21;23.79;64.18
68844;DHT22;55850;51.244;6.824;2022-08-19T06:34:32;23.82;64.39
68844;DHT22;55850;51.244;6.824;2022-08-19T06:39:40;24.11;63.30
68844;DHT22;55850;51.244;6.824;2022-08-19T06:44:47;24.51;62.42
68844;DHT22;55850;51.244;6.824;2022-08-19T06:49:58;23.98;63.29
68844;DHT22;55850;51.244;6.824;2022-08-19T06:55:07;24.67;62.27
68844;DHT22;55850;51.244;6.824;2022-08-19T07:00:13;25.27;60.71
68844;DHT22;55850;51.244;6.824;2022-08-19T07:05:22;25.03;60.66
68844;DHT22;55850;51.244;6.824;2022-08-19T07:10:28;25.17;60.69
68844;DHT22;55850;51.244;6.824;2022-08-19T07:15:36;25.00;61.09
68844;DHT22;55850;51.244;6.824;2022-08-19T07:20:44;25.10;60.84
68844;DHT22;55850;51.244;6.824;2022-08-19T07:25:50;24.53;62.01
68844;DHT22;55850;51.244;6.824;2022-08-19T07:30:56;24.12;62.85
68844;DHT22;55850;51.244;6.824;2022-08-19T07:36:12;24.30;62.59
68844;DHT22;55850;51.244;6.824;2022-08-19T07:41:21;24.33;62.29
68844;DHT22;55850;51.244;6.824;2022-08-19T07:46:26;24.52;61.68
68844;DHT22;55850;51.244;6.824;2022-08-19T07:51:35;24.51;61.49
68844;DHT22;55850;51.244;6.824;2022-08-19T07:56:41;25.57;59.43
68844;DHT22;55850;51.244;6.824;2022-08-19T08:01:47;25.81;58.77
68844;DHT22;55850;51.244;6.824;2022-08-19T08:06:56;26.64;57.99
68844;DHT22;55850;51.244;6.824;2022-08-19T08:12:17;26.91;56.62
68844;DHT22;55850;51.244;6.824;2022-08-19T08:17:37;27.35;55.73
68844;DHT22;55850;51.244;6.824;2022-08-19T08:22:55;26.92;56.57
68844;DHT22;55850;51.244;6.824;2022-08-19T08:28:13;26.85;57.17
68844;DHT22;55850;51.244;6.824;2022-08-19T08:33:20;26.36;58.15
68844;DHT22;55850;51.244;6.824;2022-08-19T08:38:38;26.26;58.22
68844;DHT22;55850;51.244;6.824;2022-08-19T08:43:49;27.38;56.01
68844;DHT22;55850;51.244;6.824;2022-08-19T08:49:02;27.03;55.41
68844;DHT22;55850;51.244;6.824;2022-08-19T08:54:19;27.67;53.84
68844;DHT22;55850;51.244;6.824;2022-08-19T08:59:28;27.40;54.01
68844;DHT22;55850;51.244;6.824;2022-08-19T09:04:36;27.46;53.63
68844;DHT22;55850;51.244;6.824;2022-08-19T09:09:47;27.08;53.31
68844;DHT22;55850;51.244;6.824;2022-08-19T09:15:00;27.19;54.15
68844;DHT22;55850;51.244;6.824;2022-08-19T09:20:19;27.08;54.46
68844;DHT22;55850;51.244;6.824;2022-08-19T09:25:30;27.69;53.59
68844;DHT22;55850;51.244;6.824;2022-08-19T09:30:40;27.61;53.47
68844;DHT22;55850;51.244;6.824;2022-08-19T09:35:46;27.74;53.71
68844;DHT22;55850;51.244;6.824;2022-08-19T09:41:02;27.71;52.25
68844;DHT22;55850;51.244;6.824;2022-08-19T09:46:08;28.18;50.25
68844;DHT22;55850;51.244;6.824;2022-08-19T09:51:21;27.66;51.91
68844;DHT22;55850;51.244;6.824;2022-08-19T09:56:30;27.94;51.96
68844;DHT22;55850;51.244;6.824;2022-08-19T10:01:36;27.87;52.27
68844;DHT22;55850;51.244;6.824;2022-08-19T10:06:42;28.44;51.58
68844;DHT22;55850;51.244;6.824;2022-08-19T10:11:57;29.00;50.63
68844;DHT22;55850;51.244;6.824;2022-08-19T10:17:04;28.48;51.92
68844;DHT22;55850;51.244;6.824;2022-08-19T10:22:23;28.14;52.35
68844;DHT22;55850;51.244;6.824;2022-08-19T10:27:31;28.25;51.43
68844;DHT22;55850;51.244;6.824;2022-08-19T10:32:37;28.00;51.57
68844;DHT22;55850;51.244;6.824;2022-08-19T10:37:48;28.17;51.61
68844;DHT22;55850;51.244;6.824;2022-08-19T10:43:04;28.04;51.76
68844;DHT22;55850;51.244;6.824;2022-08-19T10:48:09;28.77;50.72
68844;DHT22;55850;51.244;6.824;2022-08-19T10:53:20;28.42;51.04
68844;DHT22;55850;51.244;6.824;2022-08-19T10:58:30;27.73;52.54
68844;DHT22;55850;51.244;6.824;2022-08-19T11:03:36;27.40;52.53
68844;DHT22;55850;51.244;6.824;2022-08-19T11:08:41;27.84;51.48
68844;DHT22;55850;51.244;6.824;2022-08-19T11:13:51;27.49;52.18
68844;DHT22;55850;51.244;6.824;2022-08-19T11:18:58;27.70;50.64
68844;DHT22;55850;51.244;6.824;2022-08-19T11:24:08;27.56;51.42
68844;DHT22;55850;51.244;6.824;2022-08-19T11:29:18;28.25;50.49
68844;DHT22;55850;51.244;6.824;2022-08-19T11:34:28;28.10;51.10
68844;DHT22;55850;51.244;6.824;2022-08-19T11:39:35;27.61;51.56
68844;DHT22;55850;51.244;6.824;2022-08-19T11:44:44;28.53;50.14
68844;DHT22;55850;51.244;6.824;2022-08-19T11:49:49;28.82;48.90
68844;DHT22;55850;51.244;6.824;2022-08-19T11:54:55;28.96;48.72
68844;DHT22;55850;51.244;6.824;2022-08-19T12:00:05;28.48;49.48
68844;DHT22;55850;51.244;6.824;2022-08-19T12:05:12;28.28;48.99
68844;DHT22;55850;51.244;6.824;2022-08-19T12:10:19;28.42;48.28
68844;DHT22;55850;51.244;6.824;2022-08-19T12:15:30;28.53;47.50
68844;DHT22;55850;51.244;6.824;2022-08-19T12:20:41;28.63;47.49
68844;DHT22;55850;51.244;6.824;2022-08-19T12:25:49;28.12;48.04
68844;DHT22;55850;51.244;6.824;2022-08-19T12:30:58;28.07;48.38
68844;DHT22;55850;51.244;6.824;2022-08-19T12:36:06;28.04;48.50
68844;DHT22;55850;51.244;6.824;2022-08-19T12:41:17;28.01;47.81
68844;DHT22;55850;51.244;6.824;2022-08-19T12:46:27;28.07;48.18
68844;DHT22;55850;51.244;6.824;2022-08-19T12:51:35;28.04;48.01
68844;DHT22;55850;51.244;6.824;2022-08-19T12:56:41;27.90;48.32
68844;DHT22;55850;51.244;6.824;2022-08-19T13:01:51;27.77;48.20
68844;DHT22;55850;51.244;6.824;2022-08-19T13:06:56;27.80;48.16
68844;DHT22;55850;51.244;6.824;2022-08-19T13:12:04;28.01;47.32
68844;DHT22;55850;51.244;6.824;2022-08-19T13:17:13;27.93;46.81
68844;DHT22;55850;51.244;6.824;2022-08-19T13:22:18;27.63;47.45
68844;DHT22;55850;51.244;6.824;2022-08-19T13:27:24;27.54;47.04
68844;DHT22;55850;51.244;6.824;2022-08-19T13:32:32;27.61;46.51
68844;DHT22;55850;51.244;6.824;2022-08-19T13:37:50;27.76;44.88
68844;DHT22;55850;51.244;6.824;2022-08-19T13:42:56;27.77;45.58
68844;DHT22;55850;51.244;6.824;2022-08-19T13:48:06;27.79;45.97
68844;DHT22;55850;51.244;6.824;2022-08-19T13:53:12;27.59;46.02
68844;DHT22;55850;51.244;6.824;2022-08-19T13:58:18;27.57;45.91
68844;DHT22;55850;51.244;6.824;2022-08-19T14:03:27;27.60;45.28
68844;DHT22;55850;51.244;6.824;2022-08-19T14:08:33;27.59;45.20
68844;DHT22;55850;51.244;6.824;2022-08-19T14:13:47;27.67;45.38
68844;DHT22;55850;51.244;6.824;2022-08-19T14:18:55;27.77;45.78
68844;DHT22;55850;51.244;6.824;2022-08-19T14:24:02;27.83;45.96
68844;DHT22;55850;51.244;6.824;2022-08-19T14:29:07;27.74;45.74
68844;DHT22;55850;51.244;6.824;2022-08-19T14:34:16;27.80;45.87
68844;DHT22;55850;51.244;6.824;2022-08-19T14:39:22;27.81;45.06
68844;DHT22;55850;51.244;6.824;2022-08-19T14:44:27;27.80;45.25
68844;DHT22;55850;51.244;6.824;2022-08-19T14:49:38;27.53;46.04
68844;DHT22;55850;51.244;6.824;2022-08-19T14:54:50;27.76;45.79
68844;DHT22;55850;51.244;6.824;2022-08-19T14:59:55;27.77;45.38
68844;DHT22;55850;51.244;6.824;2022-08-19T15:05:05;27.73;45.68
68844;DHT22;55850;51.244;6.824;2022-08-19T15:10:13;27.73;46.32
68844;DHT22;55850;51.244;6.824;2022-08-19T15:15:19;27.98;46.03
68844;DHT22;55850;51.244;6.824;2022-08-19T15:20:28;27.69;46.22
68844;DHT22;55850;51.244;6.824;2022-08-19T15:25:34;27.30;46.34
68844;DHT22;55850;51.244;6.824;2022-08-19T15:30:40;27.33;46.61
68844;DHT22;55850;51.244;6.824;2022-08-19T15:35:48;27.26;47.28
68844;DHT22;55850;51.244;6.824;2022-08-19T15:40:55;27.49;48.03
68844;DHT22;55850;51.244;6.824;2022-08-19T15:46:23;27.28;48.78
68844;DHT22;55850;51.244;6.824;2022-08-19T15:51:33;26.99;49.78
68844;DHT22;55850;51.244;6.824;2022-08-19T15:56:41;26.96;49.68
68844;DHT22;55850;51.244;6.824;2022-08-19T16:02:00;26.94;49.62
68844;DHT22;55850;51.244;6.824;2022-08-19T16:07:28;26.72;50.14
68844;DHT22;55850;51.244;6.824;2022-08-19T16:12:42;26.57;51.30
68844;DHT22;55850;51.244;6.824;2022-08-19T16:17:48;26.74;52.10
68844;DHT22;55850;51.244;6.824;2022-08-19T16:23:01;26.61;52.82
68844;DHT22;55850;51.244;6.824;2022-08-19T16:28:07;26.45;52.83
68844;DHT22;55850;51.244;6.824;2022-08-19T16:33:14;26.40;53.06
68844;DHT22;55850;51.244;6.824;2022-08-19T16:38:27;26.51;53.24
68844;DHT22;55850;51.244;6.824;2022-08-19T16:43:33;26.72;52.54
68844;DHT22;55850;51.244;6.824;2022-08-19T16:48:40;26.60;52.01
68844;DHT22;55850;51.244;6.824;2022-08-19T16:53:50;26.57;51.98
68844;DHT22;55850;51.244;6.824;2022-08-19T16:58:56;26.50;52.12
68844;DHT22;55850;51.244;6.824;2022-08-19T17:04:02;26.57;51.80
68844;DHT22;55850;51.244;6.824;2022-08-19T17:09:11;26.53;51.67
68844;DHT22;55850;51.244;6.824;2022-08-19T17:14:27;26.72;51.61
68844;DHT22;55850;51.244;6.824;2022-08-19T17:19:34;26.64;52.25
68844;DHT22;55850;51.244;6.824;2022-08-19T17:24:43;26.71;52.26
68844;DHT22;55850;51.244;6.824;2022-08-19T17:29:49;26.58;52.45
68844;DHT22;55850;51.244;6.824;2022-08-19T17:34:55;26.53;52.90
68844;DHT22;55850;51.244;6.824;2022-08-19T17:40:06;26.44;53.02
68844;DHT22;55850;51.244;6.824;2022-08-19T17:45:12;26.30;53.63
68844;DHT22;55850;51.244;6.824;2022-08-19T17:50:20;26.19;54.09
68844;DHT22;55850;51.244;6.824;2022-08-19T17:55:28;26.19;54.28
68844;DHT22;55850;51.244;6.824;2022-08-19T18:00:35;26.17;54.58
68844;DHT22;55850;51.244;6.824;2022-08-19T18:05:56;26.04;55.19
68844;DHT22;55850;51.244;6.824;2022-08-19T18:11:04;25.78;57.88
68844;DHT22;55850;51.244;6.824;2022-08-19T18:16:10;25.44;60.64
68844;DHT22;55850;51.244;6.824;2022-08-19T18:21:16;25.27;61.71
68844;DHT22;55850;51.244;6.824;2022-08-19T18:26:25;25.31;61.21
68844;DHT22;55850;51.244;6.824;2022-08-19T18:31:31;25.34;61.93
68844;DHT22;55850;51.244;6.824;2022-08-19T18:36:37;25.46;61.75
68844;DHT22;55850;51.244;6.824;2022-08-19T18:41:58;25.33;61.90
68844;DHT22;55850;51.244;6.824;2022-08-19T18:47:15;25.18;62.29
68844;DHT22;55850;51.244;6.824;2022-08-19T18:52:33;24.98;62.69
68844;DHT22;55850;51.244;6.824;2022-08-19T18:57:42;25.00;62.44
68844;DHT22;55850;51.244;6.824;2022-08-19T19:02:48;25.04;61.87
68844;DHT22;55850;51.244;6.824;2022-08-19T19:07:56;25.02;62.02
68844;DHT22;55850;51.244;6.824;2022-08-19T19:13:04;24.97;62.12
68844;DHT22;55850;51.244;6.824;2022-08-19T19:18:11;24.75;62.81
68844;DHT22;55850;51.244;6.824;2022-08-19T19:23:18;24.79;62.46
68844;DHT22;55850;51.244;6.824;2022-08-19T19:28:27;24.62;63.73
68844;DHT22;55850;51.244;6.824;2022-08-19T19:33:33;24.48;63.94
68844;DHT22;55850;51.244;6.824;2022-08-19T19:38:38;24.51;63.25
68844;DHT22;55850;51.244;6.824;2022-08-19T19:43:54;24.46;62.49
68844;DHT22;55850;51.244;6.824;2022-08-19T19:49:22;24.46;62.29
68844;DHT22;55850;51.244;6.824;2022-08-19T19:54:28;24.43;62.66
68844;DHT22;55850;51.244;6.824;2022-08-19T19:59:36;24.35;62.59
68844;DHT22;55850;51.244;6.824;2022-08-19T20:04:52;24.55;62.13
68844;DHT22;55850;51.244;6.824;2022-08-19T20:10:00;24.35;62.60
68844;DHT22;55850;51.244;6.824;2022-08-19T20:15:08;24.35;62.66
68844;DHT22;55850;51.244;6.824;2022-08-19T20:20:16;24.29;62.86
68844;DHT22;55850;51.244;6.824;2022-08-19T20:25:22;24.15;63.24
68844;DHT22;55850;51.244;6.824;2022-08-19T20:30:31;23.95;63.64
68844;DHT22;55850;51.244;6.824;2022-08-19T20:35:39;23.94;63.91
68844;DHT22;55850;51.244;6.824;2022-08-19T20:40:46;24.08;63.90
68844;DHT22;55850;51.244;6.824;2022-08-19T20:45:55;24.12;64.24
68844;DHT22;55850;51.244;6.824;2022-08-19T20:51:01;24.18;63.76
68844;DHT22;55850;51.244;6.824;2022-08-19T20:56:08;23.70;66.09
68844;DHT22;55850;51.244;6.824;2022-08-19T21:01:19;23.73;65.77
68844;DHT22;55850;51.244;6.824;2022-08-19T21:06:24;23.85;65.50
68844;DHT22;55850;51.244;6.824;2022-08-19T21:11:30;23.60;66.31
68844;DHT22;55850;51.244;6.824;2022-08-19T21:16:39;23.64;66.22
68844;DHT22;55850;51.244;6.824;2022-08-19T21:21:44;23.57;66.43
68844;DHT22;55850;51.244;6.824;2022-08-19T21:26:50;23.70;66.61
68844;DHT22;55850;51.244;6.824;2022-08-19T21:31:58;23.36;67.80
68844;DHT22;55850;51.244;6.824;2022-08-19T21:37:04;23.37;68.08
68844;DHT22;55850;51.244;6.824;2022-08-19T21:42:27;23.20;68.64
68844;DHT22;55850;51.244;6.824;2022-08-19T21:47:35;23.06;69.12
68844;DHT22;55850;51.244;6.824;2022-08-19T21:52:41;23.33;68.76
68844;DHT22;55850;51.244;6.824;2022-08-19T21:57:46;23.24;69.06
68844;DHT22;55850;51.244;6.824;2022-08-19T22:02:55;22.99;70.28
68844;DHT22;55850;51.244;6.824;2022-08-19T22:08:02;22.96;70.41
68844;DHT22;55850;51.244;6.824;2022-08-19T22:13:08;22.81;71.06
68844;DHT22;55850;51.244;6.824;2022-08-19T22:18:19;23.12;70.49
68844;DHT22;55850;51.244;6.824;2022-08-19T22:23:25;23.19;70.17
68844;DHT22;55850;51.244;6.824;2022-08-19T22:28:33;23.36;69.99
68844;DHT22;55850;51.244;6.824;2022-08-19T22:33:42;23.29;69.93
68844;DHT22;55850;51.244;6.824;2022-08-19T22:38:47;23.12;70.76
68844;DHT22;55850;51.244;6.824;2022-08-19T22:43:55;22.98;71.24
68844;DHT22;55850;51.244;6.824;2022-08-19T22:49:09;23.15;70.78
68844;DHT22;55850;51.244;6.824;2022-08-19T22:54:15;22.94;71.44
68844;DHT22;55850;51.244;6.824;2022-08-19T22:59:20;23.26;70.46
68844;DHT22;55850;51.244;6.824;2022-08-19T23:04:29;23.09;70.97
68844;DHT22;55850;51.244;6.824;2022-08-19T23:09:34;22.85;71.57
68844;DHT22;55850;51.244;6.824;2022-08-19T23:14:46;22.67;72.25
68844;DHT22;55850;51.244;6.824;2022-08-19T23:19:54;23.08;71.16
68844;DHT22;55850;51.244;6.824;2022-08-19T23:25:05;22.91;71.71
68844;DHT22;55850;51.244;6.824;2022-08-19T23:30:11;22.98;71.41
68844;DHT22;55850;51.244;6.824;2022-08-19T23:35:35;22.96;71.13
68844;DHT22;55850;51.244;6.824;2022-08-19T23:40:42;22.79;71.88
68844;DHT22;55850;51.244;6.824;2022-08-19T23:45:49;22.72;72.01
68844;DHT22;55850;51.244;6.824;2022-08-19T23:51:07;22.95;71.57
68844;DHT22;55850;51.244;6.824;2022-08-19T23:56:13;22.64;72.36
